createdAt,value
2023-01-07T00:01:52.654Z,1.00
2023-01-07T00:04:21.439Z,1.10
2023-01-07T00:06:49.920Z,0.80
2023-01-07T00:09:17.293Z,0.90
2023-01-07T00:11:45.630Z,0.80
2023-01-07T00:14:14.845Z,0.80
2023-01-07T00:16:42.704Z,0.80
2023-01-07T00:19:14.995Z,0.70
2023-01-07T00:21:42.829Z,0.80
2023-01-07T00:24:11.223Z,0.80
2023-01-07T00:26:39.617Z,0.80
2023-01-07T00:29:07.611Z,1.10
2023-01-07T00:31:38.746Z,0.90
2023-01-07T00:34:06.401Z,0.70
2023-01-07T00:36:38.445Z,0.80
2023-01-07T00:39:12.981Z,1.00
2023-01-07T00:41:40.329Z,1.20
2023-01-07T00:44:07.981Z,1.00
2023-01-07T00:46:35.188Z,0.83
2023-01-07T00:49:02.709Z,1.20
2023-01-07T00:51:29.959Z,1.13
2023-01-07T00:53:57.372Z,1.10
2023-01-07T00:56:24.547Z,1.50
2023-01-07T00:58:51.777Z,1.20
2023-01-07T01:01:19.313Z,1.20
2023-01-07T01:03:46.729Z,1.10
2023-01-07T01:06:16.242Z,1.20
2023-01-07T01:08:45.868Z,1.30
2023-01-07T01:11:15.447Z,1.27
2023-01-07T01:13:44.625Z,1.10
2023-01-07T01:16:18.059Z,1.10
2023-01-07T01:18:46.628Z,1.17
2023-01-07T01:21:16.278Z,1.10
2023-01-07T01:23:44.313Z,1.00
2023-01-07T01:26:15.472Z,1.00
2023-01-07T01:28:43.780Z,1.20
2023-01-07T01:31:13.379Z,1.13
2023-01-07T01:33:46.185Z,1.60
2023-01-07T01:36:13.483Z,1.70
2023-01-07T01:38:41.899Z,1.63
2023-01-07T01:41:10.020Z,2.17
2023-01-07T01:43:42.919Z,2.03
2023-01-07T01:46:34.315Z,1.30
2023-01-07T01:49:28.522Z,1.30
2023-01-07T01:52:07.350Z,1.10
2023-01-07T01:54:34.734Z,1.10
2023-01-07T01:57:05.166Z,1.13
2023-01-07T01:59:39.013Z,1.37
2023-01-07T02:02:10.426Z,0.97
2023-01-07T02:04:38.387Z,1.00
2023-01-07T02:07:10.891Z,1.00
2023-01-07T02:09:42.340Z,0.70
2023-01-07T02:12:47.279Z,0.70
2023-01-07T02:15:24.099Z,0.50
2023-01-07T02:18:46.919Z,0.80
2023-01-07T02:21:44.157Z,0.70
2023-01-07T02:24:29.344Z,0.80
2023-01-07T02:27:24.596Z,0.80
2023-01-07T02:30:21.023Z,0.80
2023-01-07T02:32:58.965Z,0.80
2023-01-07T02:35:42.342Z,0.90
2023-01-07T02:39:00.402Z,1.00
2023-01-07T02:41:59.464Z,0.80
2023-01-07T02:44:37.610Z,1.00
2023-01-07T02:47:25.913Z,0.70
2023-01-07T02:49:53.016Z,0.80
2023-01-07T02:52:29.810Z,0.80
2023-01-07T02:55:22.421Z,1.20
2023-01-07T02:58:27.488Z,0.63
2023-01-07T03:01:25.484Z,0.60
2023-01-07T03:04:30.598Z,0.70
2023-01-07T03:07:03.921Z,0.73
2023-01-07T03:09:47.770Z,0.60
2023-01-07T03:12:42.440Z,0.60
2023-01-07T03:15:36.210Z,0.90
2023-01-07T03:18:19.074Z,0.60
2023-01-07T03:20:50.892Z,0.67
2023-01-07T03:23:23.609Z,0.60
2023-01-07T03:25:54.318Z,0.77
2023-01-07T03:28:27.318Z,0.60
2023-01-07T03:30:57.717Z,0.53
2023-01-07T03:33:34.640Z,0.67
2023-01-07T03:36:04.167Z,0.60
2023-01-07T03:38:32.028Z,0.80
2023-01-07T03:40:59.900Z,0.70
2023-01-07T03:43:27.116Z,0.70
2023-01-07T03:45:56.726Z,0.70
2023-01-07T03:48:25.268Z,0.70
2023-01-07T03:50:53.054Z,0.70
2023-01-07T03:53:20.645Z,0.57
2023-01-07T03:55:50.980Z,0.70
2023-01-07T03:58:18.169Z,0.60
2023-01-07T04:00:45.602Z,0.60
2023-01-07T04:03:17.710Z,0.80
2023-01-07T04:05:47.355Z,0.70
2023-01-07T04:08:14.833Z,0.60
2023-01-07T04:10:42.983Z,0.60
2023-01-07T04:13:11.976Z,0.60
2023-01-07T04:15:43.155Z,0.57
2023-01-07T04:18:10.872Z,0.60
2023-01-07T04:20:38.162Z,0.60
2023-01-07T04:23:05.345Z,0.80
2023-01-07T04:25:32.809Z,0.53
2023-01-07T04:28:03.105Z,0.60
2023-01-07T04:30:33.333Z,0.70
2023-01-07T04:33:00.943Z,1.10
2023-01-07T04:35:28.351Z,0.67
2023-01-07T04:37:56.230Z,0.70
2023-01-07T04:40:23.724Z,0.60
2023-01-07T04:42:51.079Z,0.70
2023-01-07T04:45:18.358Z,0.70
2023-01-07T04:47:46.485Z,0.70
2023-01-07T04:50:13.673Z,0.60
2023-01-07T04:52:40.895Z,0.60
2023-01-07T04:55:11.040Z,1.20
2023-01-07T04:57:38.646Z,0.80
2023-01-07T05:00:08.816Z,0.80
2023-01-07T05:02:36.075Z,0.70
2023-01-07T05:05:03.665Z,0.97
2023-01-07T05:07:31.100Z,0.80
2023-01-07T05:09:59.274Z,0.90
2023-01-07T05:12:29.290Z,1.00
2023-01-07T05:14:56.588Z,1.43
2023-01-07T05:17:23.719Z,1.90
2023-01-07T05:19:51.826Z,1.83
2023-01-07T05:22:19.175Z,1.10
2023-01-07T05:24:46.431Z,0.90
2023-01-07T05:27:13.634Z,0.60
2023-01-07T05:29:41.312Z,0.63
2023-01-07T05:32:08.672Z,0.90
2023-01-07T05:34:38.346Z,0.90
2023-01-07T05:37:05.519Z,0.60
2023-01-07T05:39:34.748Z,0.80
2023-01-07T05:42:04.538Z,0.70
2023-01-07T05:44:31.837Z,0.70
2023-01-07T05:46:59.152Z,0.70
2023-01-07T05:49:26.554Z,0.70
2023-01-07T05:51:53.748Z,0.70
2023-01-07T05:54:20.936Z,0.60
2023-01-07T05:56:48.062Z,0.70
2023-01-07T05:59:15.512Z,0.80
2023-01-07T06:01:42.673Z,0.63
2023-01-07T06:04:10.102Z,0.80
2023-01-07T06:06:37.222Z,0.67
2023-01-07T06:09:04.681Z,1.00
2023-01-07T06:11:32.069Z,0.90
2023-01-07T06:13:59.254Z,0.83
2023-01-07T06:16:26.464Z,0.90
2023-01-07T06:18:53.605Z,1.20
2023-01-07T06:21:21.603Z,1.17
2023-01-07T06:23:48.718Z,1.00
2023-01-07T06:26:15.828Z,0.80
2023-01-07T06:28:42.986Z,0.60
2023-01-07T06:31:11.620Z,0.80
2023-01-07T06:33:40.436Z,0.70
2023-01-07T06:36:08.460Z,0.70
2023-01-07T06:38:36.104Z,0.90
2023-01-07T06:41:03.441Z,0.80
2023-01-07T06:43:30.676Z,0.80
2023-01-07T06:45:58.034Z,0.83
2023-01-07T06:48:25.237Z,1.10
2023-01-07T06:50:52.437Z,0.87
2023-01-07T06:53:19.726Z,0.80
2023-01-07T06:55:51.570Z,1.00
2023-01-07T06:58:19.216Z,0.97
2023-01-07T07:00:46.314Z,1.00
2023-01-07T07:03:13.497Z,0.83
2023-01-07T07:05:40.646Z,0.90
2023-01-07T07:08:07.806Z,1.03
2023-01-07T07:10:35.622Z,0.70
2023-01-07T07:13:02.891Z,0.80
2023-01-07T07:15:30.150Z,0.80
2023-01-07T07:17:57.264Z,1.27
2023-01-07T07:20:24.372Z,1.50
2023-01-07T07:22:51.458Z,1.70
2023-01-07T07:25:19.682Z,1.70
2023-01-07T07:27:47.460Z,1.57
2023-01-07T07:30:15.999Z,1.70
2023-01-07T07:32:43.518Z,1.50
2023-01-07T07:35:11.873Z,1.30
2023-01-07T07:37:39.421Z,1.70
2023-01-07T07:40:09.172Z,1.33
2023-01-07T07:43:11.456Z,1.33
2023-01-07T07:45:24.783Z,0.90
2023-01-07T07:47:51.915Z,1.10
2023-01-07T07:50:19.365Z,1.20
2023-01-07T07:52:46.586Z,1.20
2023-01-07T07:55:20.362Z,1.20
2023-01-07T07:57:55.026Z,0.90
2023-01-07T08:00:22.821Z,1.10
2023-01-07T08:02:50.155Z,1.47
2023-01-07T08:05:17.406Z,1.30
2023-01-07T08:07:44.558Z,1.00
2023-01-07T08:10:11.711Z,1.20
2023-01-07T08:12:39.585Z,1.30
2023-01-07T08:15:08.179Z,1.20
2023-01-07T08:17:36.485Z,1.50
2023-01-07T08:20:05.942Z,1.17
2023-01-07T08:22:36.129Z,1.37
2023-01-07T08:25:03.467Z,1.63
2023-01-07T08:27:30.814Z,1.90
2023-01-07T08:29:58.039Z,1.93
2023-01-07T08:32:25.294Z,1.90
2023-01-07T08:34:52.554Z,2.10
2023-01-07T08:37:19.764Z,1.67
2023-01-07T08:39:47.063Z,2.17
2023-01-07T08:42:14.147Z,2.30
2023-01-07T08:44:41.259Z,1.63
2023-01-07T08:47:08.518Z,2.17
2023-01-07T08:49:35.642Z,2.77
2023-01-07T08:52:02.853Z,2.10
2023-01-07T08:54:30.014Z,1.50
2023-01-07T08:56:57.247Z,2.47
2023-01-07T08:59:24.401Z,2.00
2023-01-07T09:01:51.634Z,2.60
2023-01-07T09:04:18.836Z,2.23
2023-01-07T09:06:46.084Z,2.33
2023-01-07T09:09:16.724Z,2.27
2023-01-07T09:11:43.988Z,2.60
2023-01-07T09:14:11.114Z,2.90
2023-01-07T09:16:38.273Z,3.10
2023-01-07T09:19:05.434Z,2.60
2023-01-07T09:21:32.538Z,2.90
2023-01-07T09:23:59.777Z,2.77
2023-01-07T09:26:27.028Z,3.00
2023-01-07T09:28:54.149Z,2.70
2023-01-07T09:31:22.566Z,2.97
2023-01-07T09:33:51.534Z,3.10
2023-01-07T09:36:18.684Z,2.90
2023-01-07T09:38:45.837Z,2.67
2023-01-07T09:41:22.694Z,3.60
2023-01-07T09:43:59.792Z,3.03
2023-01-07T09:46:30.598Z,3.60
2023-01-07T09:49:02.667Z,3.80
2023-01-07T09:51:43.953Z,3.43
2023-01-07T09:54:34.977Z,3.80
2023-01-07T09:57:03.444Z,3.93
2023-01-07T09:59:30.924Z,3.67
2023-01-07T10:02:16.861Z,3.60
2023-01-07T10:05:03.408Z,3.63
2023-01-07T10:07:46.473Z,3.50
2023-01-07T10:10:42.458Z,4.03
2023-01-07T10:13:27.727Z,3.63
2023-01-07T10:16:08.670Z,3.80
2023-01-07T10:19:14.750Z,3.80
2023-01-07T10:22:03.688Z,3.57
2023-01-07T10:24:41.739Z,4.03
2023-01-07T10:27:14.461Z,3.50
2023-01-07T10:29:53.029Z,3.30
2023-01-07T10:32:30.722Z,4.03
2023-01-07T10:35:00.637Z,4.00
2023-01-07T10:37:36.281Z,4.27
2023-01-07T10:40:12.531Z,5.10
2023-01-07T10:43:27.626Z,4.30
2023-01-07T10:46:23.299Z,4.57
2023-01-07T10:49:38.259Z,4.23
2023-01-07T10:52:27.030Z,4.23
2023-01-07T10:55:42.079Z,4.67
2023-01-07T10:58:11.918Z,5.13
2023-01-07T11:00:40.346Z,4.60
2023-01-07T11:03:24.648Z,4.93
2023-01-07T11:06:02.722Z,5.50
2023-01-07T11:08:43.116Z,4.90
2023-01-07T11:11:21.093Z,4.50
2023-01-07T11:14:01.177Z,5.50
2023-01-07T11:16:36.207Z,6.33
2023-01-07T11:19:10.089Z,5.10
2023-01-07T11:21:44.999Z,5.20
2023-01-07T11:24:34.185Z,4.70
2023-01-07T11:27:16.490Z,5.20
2023-01-07T11:30:04.723Z,5.30
2023-01-07T11:32:35.940Z,4.57
2023-01-07T11:35:23.144Z,4.87
2023-01-07T11:37:51.381Z,4.47
2023-01-07T11:40:26.058Z,4.43
2023-01-07T11:42:59.734Z,2.63
2023-01-07T11:45:30.446Z,1.80
2023-01-07T11:48:14.995Z,1.30
2023-01-07T11:51:01.839Z,0.63
2023-01-07T11:53:42.238Z,0.70
2023-01-07T11:56:22.246Z,0.50
2023-01-07T11:58:51.669Z,0.60
2023-01-07T12:01:24.386Z,0.60
2023-01-07T12:03:54.820Z,0.70
2023-01-07T12:06:33.565Z,0.67
2023-01-07T12:09:24.149Z,0.60
2023-01-07T12:11:54.453Z,0.80
2023-01-07T12:14:34.350Z,0.57
2023-01-07T12:17:17.651Z,0.83
2023-01-07T12:19:53.968Z,0.60
2023-01-07T12:22:46.540Z,0.60
2023-01-07T12:25:36.744Z,0.60
2023-01-07T12:28:19.870Z,0.60
2023-01-07T12:31:11.961Z,0.60
2023-01-07T12:34:03.363Z,0.50
2023-01-07T12:36:48.295Z,0.60
2023-01-07T12:39:36.879Z,0.60
2023-01-07T12:42:09.321Z,0.70
2023-01-07T12:44:44.880Z,0.63
2023-01-07T12:47:30.562Z,0.57
2023-01-07T12:50:06.393Z,0.50
2023-01-07T12:52:58.314Z,0.60
2023-01-07T12:55:34.096Z,1.00
2023-01-07T12:58:17.874Z,0.60
2023-01-07T13:01:00.489Z,4.47
2023-01-07T13:03:53.318Z,1.40
2023-01-07T13:06:48.953Z,2.70
2023-01-07T13:09:31.325Z,0.70
2023-01-07T13:12:40.964Z,0.50
2023-01-07T13:15:33.816Z,0.70
2023-01-07T13:18:17.584Z,0.67
2023-01-07T13:21:06.302Z,0.70
2023-01-07T13:24:03.995Z,0.80
2023-01-07T13:26:55.822Z,0.90
2023-01-07T13:29:53.736Z,0.60
2023-01-07T13:32:52.802Z,0.80
2023-01-07T13:35:30.063Z,0.90
2023-01-07T13:38:34.329Z,0.80
2023-01-07T13:41:13.610Z,0.70
2023-01-07T13:44:22.951Z,0.80
2023-01-07T13:46:50.551Z,0.80
2023-01-07T13:49:32.198Z,0.90
2023-01-07T13:52:20.682Z,0.70
2023-01-07T13:54:50.882Z,0.80
2023-01-07T13:57:23.977Z,1.23
2023-01-07T13:59:56.075Z,0.70
2023-01-07T14:02:29.016Z,0.80
2023-01-07T14:05:11.630Z,1.30
2023-01-07T14:08:05.263Z,1.10
2023-01-07T14:10:35.526Z,0.83
2023-01-07T14:13:21.254Z,1.07
2023-01-07T14:15:54.028Z,1.30
2023-01-07T14:18:59.839Z,1.43
2023-01-07T14:21:45.319Z,1.53
2023-01-07T14:24:42.883Z,1.40
2023-01-07T14:27:44.201Z,2.67
2023-01-07T14:30:23.849Z,2.50
2023-01-07T14:33:02.620Z,1.77
2023-01-07T14:35:40.552Z,1.57
2023-01-07T14:38:29.555Z,1.30
2023-01-07T14:41:13.438Z,1.27
2023-01-07T14:43:43.574Z,1.80
2023-01-07T14:46:22.925Z,2.57
2023-01-07T14:49:02.004Z,3.47
2023-01-07T14:52:32.040Z,3.67
2023-01-07T14:55:26.743Z,3.10
2023-01-07T14:57:56.616Z,2.60
2023-01-07T15:00:57.857Z,2.20
2023-01-07T15:04:08.077Z,2.70
2023-01-07T15:06:39.299Z,4.40
2023-01-07T15:09:51.907Z,2.80
2023-01-07T15:12:45.432Z,2.93
2023-01-07T15:15:45.525Z,2.20
2023-01-07T15:18:13.636Z,2.30
2023-01-07T15:21:27.766Z,2.70
2023-01-07T15:24:22.846Z,7.13
2023-01-07T15:27:08.855Z,11.90
2023-01-07T15:30:13.217Z,22.30
2023-01-07T15:33:23.014Z,12.73
2023-01-07T15:35:50.259Z,4.60
2023-01-07T15:38:27.405Z,7.97
2023-01-07T15:40:57.184Z,9.07
2023-01-07T15:43:28.112Z,14.30
2023-01-07T15:46:05.160Z,27.07
2023-01-07T15:48:32.524Z,10.87
2023-01-07T15:51:02.364Z,7.50
2023-01-07T15:53:30.337Z,5.13
2023-01-07T15:56:10.608Z,5.27
2023-01-07T15:58:48.836Z,5.63
2023-01-07T16:01:21.613Z,4.93
2023-01-07T16:03:52.617Z,5.20
2023-01-07T16:06:31.550Z,9.90
2023-01-07T16:09:01.567Z,7.20
2023-01-07T16:11:31.428Z,7.90
2023-01-07T16:14:01.940Z,8.97
2023-01-07T16:16:31.802Z,8.10
2023-01-07T16:19:02.358Z,7.20
2023-01-07T16:21:45.981Z,10.10
2023-01-07T16:24:16.847Z,9.90
2023-01-07T16:26:56.061Z,9.07
2023-01-07T16:29:28.125Z,9.00
2023-01-07T16:31:56.437Z,8.77
2023-01-07T16:34:26.604Z,9.30
2023-01-07T16:36:59.343Z,8.00
2023-01-07T16:39:35.069Z,7.87
2023-01-07T16:42:23.152Z,6.83
2023-01-07T16:44:53.553Z,7.20
2023-01-07T16:47:32.887Z,8.93
2023-01-07T16:50:20.145Z,9.50
2023-01-07T16:52:54.012Z,8.33
2023-01-07T16:55:52.148Z,9.57
2023-01-07T16:58:57.959Z,9.57
2023-01-07T17:01:34.208Z,8.40
2023-01-07T17:04:08.032Z,8.47
2023-01-07T17:06:41.624Z,9.50
2023-01-07T17:09:24.987Z,8.63
2023-01-07T17:11:53.717Z,10.07
2023-01-07T17:14:37.073Z,11.77
2023-01-07T17:17:15.008Z,11.23
2023-01-07T17:20:01.282Z,10.80
2023-01-07T17:22:38.229Z,12.30
2023-01-07T17:25:16.503Z,15.40
2023-01-07T17:27:51.994Z,14.10
2023-01-07T17:30:22.384Z,13.20
2023-01-07T17:32:51.222Z,12.30
2023-01-07T17:35:26.586Z,15.10
2023-01-07T17:37:56.801Z,12.50
2023-01-07T17:40:24.215Z,13.13
2023-01-07T17:43:10.412Z,11.80
2023-01-07T17:45:37.619Z,12.70
2023-01-07T17:48:14.184Z,11.50
2023-01-07T17:50:42.289Z,12.17
2023-01-07T17:53:23.012Z,12.50
2023-01-07T17:55:50.405Z,11.23
2023-01-07T17:58:36.380Z,11.93
2023-01-07T18:01:12.758Z,32.87
2023-01-07T18:03:40.395Z,13.30
2023-01-07T18:06:22.657Z,11.43
2023-01-07T18:08:52.353Z,11.70
2023-01-07T18:11:45.709Z,11.93
2023-01-07T18:14:16.967Z,11.00
2023-01-07T18:16:44.152Z,11.50
2023-01-07T18:19:15.450Z,13.83
2023-01-07T18:21:42.950Z,15.17
2023-01-07T18:24:16.976Z,14.03
2023-01-07T18:26:44.368Z,14.80
2023-01-07T18:29:12.588Z,14.97
2023-01-07T18:31:42.552Z,15.00
2023-01-07T18:34:11.788Z,15.00
2023-01-07T18:36:39.392Z,14.60
2023-01-07T18:39:09.979Z,15.30
2023-01-07T18:41:39.942Z,15.23
2023-01-07T18:44:07.177Z,16.33
2023-01-07T18:46:34.533Z,15.83
2023-01-07T18:49:02.140Z,15.60
2023-01-07T18:51:29.319Z,18.27
2023-01-07T18:53:56.573Z,18.40
2023-01-07T18:56:24.053Z,17.47
2023-01-07T18:58:56.025Z,17.00
2023-01-07T19:01:24.012Z,16.87
2023-01-07T19:03:51.784Z,18.00
2023-01-07T19:06:19.078Z,17.33
2023-01-07T19:08:46.225Z,17.90
2023-01-07T19:11:15.166Z,16.70
2023-01-07T19:13:42.693Z,12.57
2023-01-07T19:16:12.501Z,15.07
2023-01-07T19:18:40.546Z,14.63
2023-01-07T19:21:11.793Z,14.47
2023-01-07T19:23:39.164Z,13.00
2023-01-07T19:26:09.668Z,13.17
2023-01-07T19:28:36.853Z,15.20
2023-01-07T19:31:09.116Z,19.47
2023-01-07T19:33:36.762Z,19.67
2023-01-07T19:36:09.106Z,19.30
2023-01-07T19:38:45.742Z,18.67
2023-01-07T19:41:16.521Z,19.67
2023-01-07T19:43:45.795Z,21.53
2023-01-07T19:46:15.241Z,18.37
2023-01-07T19:48:42.871Z,14.67
2023-01-07T19:51:11.513Z,14.77
2023-01-07T19:53:39.562Z,15.40
2023-01-07T19:56:10.941Z,15.20
2023-01-07T19:58:39.500Z,14.40
2023-01-07T20:01:12.646Z,16.53
2023-01-07T20:03:39.934Z,21.73
2023-01-07T20:06:14.654Z,14.73
2023-01-07T20:08:42.531Z,17.50
2023-01-07T20:11:10.467Z,17.67
2023-01-07T20:13:39.236Z,18.03
2023-01-07T20:16:31.166Z,16.00
2023-01-07T20:18:58.375Z,15.90
2023-01-07T20:21:26.649Z,15.80
2023-01-07T20:23:54.504Z,16.40
2023-01-07T20:26:26.828Z,18.27
2023-01-07T20:28:54.648Z,16.27
2023-01-07T20:31:23.472Z,14.97
2023-01-07T20:33:51.745Z,15.67
2023-01-07T20:36:23.759Z,16.00
2023-01-07T20:38:54.405Z,17.63
2023-01-07T20:41:27.548Z,18.73
2023-01-07T20:44:01.739Z,16.67
2023-01-07T20:46:32.210Z,17.03
2023-01-07T20:48:59.592Z,18.57
2023-01-07T20:51:27.585Z,19.13
2023-01-07T20:53:54.969Z,18.90
2023-01-07T20:56:24.502Z,17.60
2023-01-07T20:58:52.636Z,20.37
2023-01-07T21:01:21.765Z,18.37
2023-01-07T21:03:49.722Z,18.00
2023-01-07T21:06:20.084Z,19.07
2023-01-07T21:08:48.881Z,17.03
2023-01-07T21:11:20.658Z,18.80
2023-01-07T21:13:49.129Z,17.40
2023-01-07T21:16:17.081Z,17.10
2023-01-07T21:18:45.244Z,18.57
2023-01-07T21:21:16.534Z,18.40
2023-01-07T21:23:46.701Z,15.37
2023-01-07T21:26:14.972Z,15.10
2023-01-07T21:28:44.426Z,16.07
2023-01-07T21:31:14.464Z,14.40
2023-01-07T21:33:42.285Z,15.70
2023-01-07T21:36:18.511Z,14.33
2023-01-07T21:38:46.735Z,17.17
2023-01-07T21:41:16.523Z,15.57
2023-01-07T21:43:44.742Z,14.93
2023-01-07T21:46:12.605Z,15.30
2023-01-07T21:48:45.026Z,15.77
2023-01-07T21:51:23.360Z,15.80
2023-01-07T21:53:55.924Z,13.73
2023-01-07T21:56:27.696Z,15.10
2023-01-07T21:58:54.944Z,14.23
2023-01-07T22:01:28.120Z,14.40
2023-01-07T22:03:58.697Z,15.73
2023-01-07T22:06:29.676Z,14.40
2023-01-07T22:09:00.803Z,15.23
2023-01-07T22:11:28.524Z,13.47
2023-01-07T22:13:58.318Z,16.00
2023-01-07T22:16:28.469Z,13.50
2023-01-07T22:19:00.238Z,13.93
2023-01-07T22:21:27.970Z,14.07
2023-01-07T22:23:55.234Z,13.50
2023-01-07T22:26:22.326Z,15.30
2023-01-07T22:28:57.589Z,13.60
2023-01-07T22:31:32.092Z,13.43
2023-01-07T22:33:59.641Z,12.60
2023-01-07T22:36:47.851Z,12.73
2023-01-07T22:39:25.682Z,12.33
2023-01-07T22:41:57.838Z,12.43
2023-01-07T22:44:34.975Z,13.27
2023-01-07T22:47:03.487Z,13.50
2023-01-07T22:49:32.781Z,13.50
2023-01-07T22:52:00.106Z,12.93
2023-01-07T22:54:28.332Z,11.53
2023-01-07T22:56:55.434Z,13.23
2023-01-07T22:59:22.555Z,12.10
2023-01-07T23:01:49.653Z,13.30
2023-01-07T23:04:16.893Z,14.87
2023-01-07T23:06:43.972Z,12.73
2023-01-07T23:09:11.248Z,11.43
2023-01-07T23:11:56.978Z,13.07
2023-01-07T23:14:25.202Z,11.70
2023-01-07T23:16:52.939Z,12.23
2023-01-07T23:19:22.036Z,13.50
2023-01-07T23:21:53.070Z,14.10
2023-01-07T23:24:21.867Z,13.87
2023-01-07T23:26:52.348Z,10.40
2023-01-07T23:29:20.461Z,12.93
2023-01-07T23:31:47.701Z,11.60
2023-01-07T23:34:15.927Z,12.87
2023-01-07T23:36:43.108Z,12.23
2023-01-07T23:39:10.278Z,13.40
2023-01-07T23:41:37.526Z,12.80
2023-01-07T23:44:04.864Z,13.30
2023-01-07T23:46:32.141Z,13.33
2023-01-07T23:48:59.207Z,12.73
2023-01-07T23:51:26.301Z,12.47
2023-01-07T23:53:53.711Z,12.03
2023-01-07T23:56:21.758Z,12.33
2023-01-07T23:58:49.861Z,13.10
